Time;durP1;ratioP1;P1;durP2;ratioP2;P2;SDS_P1;SDS_P2;PMS_P1;PMS_P2;Temp;Humidity;BMP_temperature;BMP_pressure;BME280_temperature;BME280_humidity;BME280_pressure;Samples;Min_cycle;Max_cycle;Signal;HPM_P1;HPM_P2
2023/01/21 00:01:08;;;;;;;91.15;16.23;;;;;;;-4.79;100.00;98344.75;4973874;28;20117;-52
2023/01/21 00:03:33;;;;;;;94.28;13.40;;;;;;;-4.81;100.00;98348.88;4981609;28;20030;-53
2023/01/21 00:05:59;;;;;;;73.03;12.63;;;;;;;-4.81;100.00;98350.53;4976654;28;20035;-53
2023/01/21 00:08:25;;;;;;;86.82;13.30;;;;;;;-4.92;100.00;98353.28;4974594;28;20038;-52
2023/01/21 00:10:50;;;;;;;83.15;11.60;;;;;;;-4.90;100.00;98356.78;4975439;28;20049;-52
2023/01/21 00:13:16;;;;;;;77.68;12.82;;;;;;;-4.86;100.00;98353.66;4974609;28;20030;-52
2023/01/21 00:15:41;;;;;;;90.10;13.32;;;;;;;-4.93;100.00;98361.69;4976738;28;20033;-55
2023/01/21 00:18:07;;;;;;;90.70;13.50;;;;;;;-4.95;100.00;98365.75;4964573;28;20041;-56
2023/01/21 00:20:33;;;;;;;77.00;12.13;;;;;;;-4.98;100.00;98357.94;4976688;28;20112;-52
2023/01/21 00:22:58;;;;;;;78.03;12.45;;;;;;;-4.98;100.00;98357.94;4976660;28;20099;-52
2023/01/21 00:25:24;;;;;;;80.90;13.23;;;;;;;-5.00;100.00;98355.34;4973723;28;20263;-54
2023/01/21 00:27:49;;;;;;;99.82;14.77;;;;;;;-4.96;100.00;98361.47;4973440;28;20026;-53
2023/01/21 00:30:15;;;;;;;80.97;13.10;;;;;;;-5.01;100.00;98365.38;4977910;28;20529;-52
2023/01/21 00:32:41;;;;;;;82.13;11.00;;;;;;;-5.00;100.00;98364.59;4978369;28;20109;-52
2023/01/21 00:35:07;;;;;;;83.05;14.65;;;;;;;-4.93;100.00;98370.94;4976407;28;20030;-54
2023/01/21 00:37:32;;;;;;;91.45;13.73;;;;;;;-148.24;100.00;61531.34;4975709;28;20172;-55
2023/01/21 00:39:57;;;;;;;109.13;13.48;;;;;;;-148.24;100.00;61531.34;4971120;28;20045;-54
2023/01/21 00:42:23;;;;;;;86.03;11.63;;;;;;;-148.24;100.00;61531.34;4973729;28;20053;-53
2023/01/21 00:44:48;;;;;;;91.13;11.13;;;;;;;-148.24;100.00;61531.34;4977475;28;20180;-55
2023/01/21 00:47:14;;;;;;;87.25;13.32;;;;;;;-148.24;100.00;61531.34;4977892;28;20034;-53
2023/01/21 00:49:39;;;;;;;77.65;12.98;;;;;;;-148.24;100.00;61531.34;4975498;28;20358;-53
2023/01/21 00:52:04;;;;;;;91.78;14.00;;;;;;;-148.24;100.00;61531.34;4978260;28;20065;-53
2023/01/21 00:54:31;;;;;;;76.30;12.63;;;;;;;-148.24;100.00;61531.34;4975848;28;20052;-53
2023/01/21 00:56:57;;;;;;;83.32;13.48;;;;;;;-148.24;100.00;61531.34;4976741;28;20062;-55
2023/01/21 00:59:23;;;;;;;97.07;13.68;;;;;;;-148.24;100.00;61531.34;4977467;28;20030;-53
2023/01/21 01:01:48;;;;;;;87.65;14.23;;;;;;;-148.24;100.00;61531.34;4978046;28;20046;-54
2023/01/21 01:04:14;;;;;;;101.80;14.15;;;;;;;-148.24;100.00;61531.34;4980493;28;20531;-52
2023/01/21 01:06:39;;;;;;;82.40;12.85;;;;;;;-148.24;100.00;61531.34;4980863;28;20037;-53
2023/01/21 01:09:05;;;;;;;84.07;11.98;;;;;;;-148.24;100.00;61531.34;4981660;28;20113;-52
2023/01/21 01:11:30;;;;;;;96.50;14.60;;;;;;;-148.24;100.00;61531.34;4971773;28;20039;-53
2023/01/21 01:13:57;;;;;;;77.65;12.50;;;;;;;-148.24;100.00;61531.34;4978038;28;20038;-52
2023/01/21 01:16:23;;;;;;;109.78;14.73;;;;;;;-148.24;100.00;61531.34;4977996;28;20031;-54
2023/01/21 01:18:51;;;;;;;112.72;14.18;;;;;;;-148.24;100.00;61531.34;4964951;28;20050;-55
2023/01/21 01:21:18;;;;;;;81.55;13.40;;;;;;;-148.24;100.00;61531.34;4978535;28;20050;-55
2023/01/21 01:23:45;;;;;;;102.28;13.70;;;;;;;-148.24;100.00;61531.34;4976815;28;20431;-52
2023/01/21 01:26:12;;;;;;;80.97;12.55;;;;;;;-148.24;100.00;61531.34;4976343;28;20118;-52
2023/01/21 01:28:38;;;;;;;108.43;14.60;;;;;;;-148.24;100.00;61531.34;4976016;28;20030;-53
2023/01/21 01:31:06;;;;;;;86.47;12.98;;;;;;;-148.24;100.00;61531.34;4977232;28;20050;-53
2023/01/21 01:33:32;;;;;;;100.07;14.10;;;;;;;-148.24;100.00;61531.34;4974571;28;20105;-54
2023/01/21 01:36:05;;;;;;;73.55;12.55;;;;;;;-148.24;100.00;61531.34;4977466;28;20046;-53
2023/01/21 01:38:31;;;;;;;90.03;13.48;;;;;;;-148.24;100.00;61531.34;4958510;28;20031;-53
2023/01/21 01:40:57;;;;;;;73.78;11.95;;;;;;;-148.24;100.00;61531.34;4972137;28;20121;-55
2023/01/21 01:43:54;;;;;;;70.70;12.15;;;;;;;-148.24;100.00;61531.34;4978260;28;20068;-52
2023/01/21 01:46:21;;;;;;;76.00;12.20;;;;;;;-148.24;100.00;61531.34;4965140;28;20037;-52
2023/01/21 01:48:51;;;;;;;93.63;12.30;;;;;;;-148.24;100.00;61531.34;4981689;28;20030;-53
2023/01/21 01:51:20;;;;;;;83.35;12.65;;;;;;;-148.24;100.00;61531.34;4977789;28;20861;-53
2023/01/21 01:53:47;;;;;;;92.00;11.57;;;;;;;-148.24;100.00;61531.34;4982695;28;20030;-53
2023/01/21 01:56:14;;;;;;;75.38;11.50;;;;;;;-148.24;100.00;61531.34;4980591;28;20039;-52
2023/01/21 01:58:40;;;;;;;69.18;10.07;;;;;;;-148.24;100.00;61531.34;4978336;28;20031;-55
2023/01/21 02:01:06;;;;;;;61.63;7.32;;;;;;;-148.24;100.00;61531.34;4979282;28;20080;-54
2023/01/21 02:03:45;;;;;;;56.40;6.65;;;;;;;-148.24;100.00;61531.34;4979180;28;20533;-52
2023/01/21 02:06:13;;;;;;;81.97;11.32;;;;;;;-148.24;100.00;61531.34;4977264;28;20044;-53
2023/01/21 02:08:39;;;;;;;69.20;9.13;;;;;;;-148.24;100.00;61531.34;4980392;28;20057;-56
2023/01/21 02:11:11;;;;;;;95.05;11.93;;;;;;;-148.24;100.00;61531.34;4979022;28;20141;-55
2023/01/21 02:13:36;;;;;;;78.55;12.23;;;;;;;-148.24;100.00;61531.34;4979421;28;20087;-52
2023/01/21 02:16:09;;;;;;;99.07;12.98;;;;;;;-148.24;100.00;61531.34;4976543;28;20034;-52
2023/01/21 02:18:45;;;;;;;70.53;10.52;;;;;;;-148.24;100.00;61531.34;4980209;28;20030;-53
2023/01/21 02:21:44;;;;;;;84.18;10.35;;;;;;;-148.24;100.00;61531.34;4977541;28;20790;-54
2023/01/21 02:24:23;;;;;;;94.03;12.45;;;;;;;-148.24;100.00;61531.34;4977314;28;20029;-52
2023/01/21 02:27:12;;;;;;;60.92;10.95;;;;;;;-148.24;100.00;61531.34;4980685;28;20106;-52
2023/01/21 02:29:44;;;;;;;67.40;9.15;;;;;;;-148.24;100.00;61531.34;4976042;28;20027;-55
2023/01/21 02:33:08;;;;;;;83.07;10.05;;;;;;;-148.24;100.00;61531.34;4974992;28;20126;-53
2023/01/21 02:35:49;;;;;;;71.10;9.90;;;;;;;-148.24;100.00;61531.34;4905424;28;20866;-53
2023/01/21 02:38:25;;;;;;;93.30;12.23;;;;;;;-148.24;100.00;61531.34;4980081;28;20261;-53
2023/01/21 02:40:59;;;;;;;87.68;10.90;;;;;;;-148.24;100.00;61531.34;4952164;28;20031;-55
2023/01/21 02:43:56;;;;;;;80.43;11.50;;;;;;;-148.24;100.00;61531.34;4975406;28;20030;-54
2023/01/21 02:46:46;;;;;;;87.68;11.10;;;;;;;-148.24;100.00;61531.34;4939772;28;20098;-53
2023/01/21 02:49:23;;;;;;;78.43;10.07;;;;;;;-148.24;100.00;61531.34;4931720;28;20109;-55
2023/01/21 02:51:49;;;;;;;84.28;12.07;;;;;;;-148.24;100.00;61531.34;4973325;28;20041;-53
2023/01/21 02:54:35;;;;;;;83.70;12.02;;;;;;;-148.24;100.00;61531.34;4976428;28;20022;-53
2023/01/21 02:57:01;;;;;;;68.22;8.75;;;;;;;-148.24;100.00;61531.34;4978380;28;20122;-52
2023/01/21 02:59:26;;;;;;;90.45;12.05;;;;;;;-148.24;100.00;61531.34;4979340;28;20645;-53
2023/01/21 03:02:23;;;;;;;64.95;8.93;;;;;;;-148.24;100.00;61531.34;4973472;28;20050;-52
2023/01/21 03:05:23;;;;;;;71.45;8.85;;;;;;;-148.24;100.00;61531.34;4978672;28;20357;-54
2023/01/21 03:08:00;;;;;;;82.55;11.88;;;;;;;-148.24;100.00;61531.34;4975349;28;20121;-53
2023/01/21 03:11:01;;;;;;;60.25;8.50;;;;;;;-148.24;100.00;61531.34;4973820;28;20590;-53
2023/01/21 03:19:11;;;;;;;73.90;10.88;;;;;;;-148.24;100.00;61531.34;4977461;28;19984;-52
2023/01/21 03:21:37;;;;;;;73.45;10.50;;;;;;;-148.24;100.00;61531.34;4975686;28;20688;-54
2023/01/21 03:24:04;;;;;;;73.85;10.73;;;;;;;-148.24;100.00;61531.34;4974111;28;20030;-52
2023/01/21 03:26:34;;;;;;;73.90;10.77;;;;;;;-148.24;100.00;61531.34;4982361;28;20402;-53
2023/01/21 03:29:05;;;;;;;79.13;7.72;;;;;;;-148.24;100.00;61531.34;4979256;28;20103;-53
2023/01/21 03:31:34;;;;;;;69.28;10.50;;;;;;;-148.24;100.00;61531.34;4977856;28;20140;-53
2023/01/21 03:34:04;;;;;;;96.97;13.43;;;;;;;-148.24;100.00;61531.34;4979788;28;20515;-54
2023/01/21 03:36:51;;;;;;;68.43;7.90;;;;;;;-148.24;100.00;61531.34;4977788;28;20054;-52
2023/01/21 03:39:44;;;;;;;61.20;7.65;;;;;;;-148.24;100.00;61531.34;4980338;28;20298;-53
2023/01/21 03:42:11;;;;;;;91.72;12.13;;;;;;;-148.24;100.00;61531.34;4981916;28;20129;-53
2023/01/21 03:44:37;;;;;;;69.20;10.90;;;;;;;-148.24;100.00;61531.34;4977918;28;20697;-53
2023/01/21 03:47:05;;;;;;;86.10;11.75;;;;;;;-148.24;100.00;61531.34;4980244;28;20049;-52
2023/01/21 03:49:36;;;;;;;73.35;11.57;;;;;;;-148.24;100.00;61531.34;4976052;28;20027;-52
2023/01/21 03:52:03;;;;;;;65.88;10.57;;;;;;;-148.24;100.00;61531.34;4974402;28;20119;-54
2023/01/21 03:54:29;;;;;;;71.70;9.88;;;;;;;-148.24;100.00;61531.34;4977944;28;20435;-53
2023/01/21 03:56:55;;;;;;;85.65;12.27;;;;;;;-148.24;100.00;61531.34;4978640;28;20038;-53
2023/01/21 03:59:20;;;;;;;89.75;11.65;;;;;;;-148.24;100.00;61531.34;4980941;28;20083;-53
2023/01/21 04:01:45;;;;;;;69.78;11.15;;;;;;;-148.24;100.00;61531.34;4973823;28;20157;-53
2023/01/21 04:04:11;;;;;;;74.53;10.25;;;;;;;-148.24;100.00;61531.34;4973130;28;20638;-52
2023/01/21 04:06:36;;;;;;;73.05;11.90;;;;;;;-148.24;100.00;61531.34;4977946;28;20092;-53
2023/01/21 04:09:03;;;;;;;82.20;12.20;;;;;;;-148.24;100.00;61531.34;4961302;28;20046;-52
2023/01/21 04:11:28;;;;;;;86.50;11.70;;;;;;;-148.24;100.00;61531.34;4975082;28;20496;-54
2023/01/21 04:13:54;;;;;;;76.78;12.05;;;;;;;-148.24;100.00;61531.34;4965854;28;20033;-54
2023/01/21 04:16:19;;;;;;;82.88;11.70;;;;;;;-148.24;100.00;61531.34;4973684;28;20157;-52
2023/01/21 04:18:46;;;;;;;62.47;8.50;;;;;;;-148.24;100.00;61531.34;4974002;28;20035;-52
2023/01/21 04:21:12;;;;;;;71.50;9.57;;;;;;;-148.24;100.00;61531.34;4975685;28;20030;-53
2023/01/21 04:23:37;;;;;;;87.70;11.45;;;;;;;-148.24;100.00;61531.34;4972939;28;20502;-53
2023/01/21 04:26:02;;;;;;;62.42;7.75;;;;;;;-148.24;100.00;61531.34;4974349;28;20062;-53
2023/01/21 04:28:28;;;;;;;65.78;11.18;;;;;;;-148.24;100.00;61531.34;4972705;28;20181;-54
2023/01/21 04:30:53;;;;;;;71.32;11.10;;;;;;;-148.24;100.00;61531.34;4976483;28;20038;-56
2023/01/21 04:33:19;;;;;;;72.82;11.98;;;;;;;-148.24;100.00;61531.34;4982944;28;20371;-53
2023/01/21 04:35:44;;;;;;;94.30;12.40;;;;;;;-148.24;100.00;61531.34;4981518;28;20057;-52
2023/01/21 04:38:10;;;;;;;63.58;9.65;;;;;;;-148.24;100.00;61531.34;4978901;28;20072;-53
2023/01/21 04:40:36;;;;;;;70.10;9.77;;;;;;;-148.24;100.00;61531.34;4982213;28;20350;-53
2023/01/21 04:43:01;;;;;;;65.55;10.32;;;;;;;-148.24;100.00;61531.34;4978388;28;20023;-52
2023/01/21 04:45:27;;;;;;;74.95;10.73;;;;;;;-148.24;100.00;61531.34;4980484;28;20037;-52
2023/01/21 04:47:52;;;;;;;86.45;10.48;;;;;;;-148.24;100.00;61531.34;4968207;28;20140;-54
2023/01/21 04:50:17;;;;;;;70.20;10.80;;;;;;;-148.24;100.00;61531.34;4981932;28;20038;-54
2023/01/21 04:52:43;;;;;;;61.90;11.18;;;;;;;-148.24;100.00;61531.34;4978263;28;20161;-52
2023/01/21 04:55:09;;;;;;;66.43;11.30;;;;;;;-148.24;100.00;61531.34;4976694;28;20084;-53
2023/01/21 04:57:35;;;;;;;63.00;9.80;;;;;;;-148.24;100.00;61531.34;4979161;28;20119;-53
2023/01/21 05:00:01;;;;;;;78.25;9.40;;;;;;;-148.24;100.00;61531.34;4982894;28;20022;-52
2023/01/21 05:02:26;;;;;;;68.95;11.13;;;;;;;-148.24;100.00;61531.34;4979628;28;20053;-52
2023/01/21 05:04:52;;;;;;;62.05;8.73;;;;;;;-148.24;100.00;61531.34;4980564;28;20045;-55
2023/01/21 05:07:17;;;;;;;76.00;10.77;;;;;;;-148.24;100.00;61531.34;4979225;28;20038;-55
2023/01/21 05:09:42;;;;;;;84.63;11.35;;;;;;;-148.24;100.00;61531.34;4981322;28;20691;-54
2023/01/21 05:12:08;;;;;;;94.28;12.75;;;;;;;-148.24;100.00;61531.34;4976387;28;20030;-52
2023/01/21 05:14:34;;;;;;;67.70;11.35;;;;;;;-148.24;100.00;61531.34;4978978;28;20145;-53
2023/01/21 05:16:59;;;;;;;55.40;9.57;;;;;;;-148.24;100.00;61531.34;4977668;28;20031;-52
2023/01/21 05:19:24;;;;;;;85.72;12.35;;;;;;;-148.24;100.00;61531.34;4978907;28;20026;-53
2023/01/21 05:21:50;;;;;;;69.10;10.90;;;;;;;-148.24;100.00;61531.34;4979605;28;20105;-53
2023/01/21 05:24:15;;;;;;;100.30;13.35;;;;;;;-148.24;100.00;61531.34;4981403;28;20740;-52
2023/01/21 05:26:42;;;;;;;73.30;13.15;;;;;;;-148.24;100.00;61531.34;4982077;28;20563;-52
2023/01/21 05:29:07;;;;;;;66.72;13.43;;;;;;;-148.24;100.00;61531.34;4978773;28;20114;-53
2023/01/21 05:31:32;;;;;;;78.20;11.48;;;;;;;-148.24;100.00;61531.34;4978775;28;20179;-52
2023/01/21 05:33:58;;;;;;;82.05;11.73;;;;;;;-148.24;100.00;61531.34;4978412;28;20106;-53
2023/01/21 05:36:23;;;;;;;93.10;13.50;;;;;;;-148.24;100.00;61531.34;4974404;28;20117;-51
2023/01/21 05:38:49;;;;;;;78.10;11.43;;;;;;;-148.24;100.00;61531.34;4978140;28;20085;-52
2023/01/21 05:41:14;;;;;;;79.97;12.23;;;;;;;-148.24;100.00;61531.34;4977520;28;20496;-54
2023/01/21 05:43:39;;;;;;;74.90;11.60;;;;;;;-148.24;100.00;61531.34;4980544;28;20083;-54
2023/01/21 05:46:05;;;;;;;72.30;10.40;;;;;;;-148.24;100.00;61531.34;4978842;28;20041;-54
2023/01/21 05:48:30;;;;;;;84.75;11.55;;;;;;;-148.24;100.00;61531.34;4978494;28;20056;-54
2023/01/21 05:50:56;;;;;;;72.40;10.75;;;;;;;-148.24;100.00;61531.34;4980032;28;20744;-53
2023/01/21 05:53:23;;;;;;;82.35;12.10;;;;;;;-148.24;100.00;61531.34;4974764;28;20457;-52
2023/01/21 05:55:55;;;;;;;88.47;12.07;;;;;;;-148.24;100.00;61531.34;4979508;28;20116;-56
2023/01/21 05:58:22;;;;;;;77.80;10.18;;;;;;;-148.24;100.00;61531.34;4979433;28;20065;-54
2023/01/21 06:00:48;;;;;;;83.95;10.63;;;;;;;-148.24;100.00;61531.34;4978780;28;20038;-54
2023/01/21 06:03:17;;;;;;;63.92;9.52;;;;;;;-148.24;100.00;61531.34;4979820;28;20865;-52
2023/01/21 06:05:43;;;;;;;94.15;11.18;;;;;;;-148.24;100.00;61531.34;4980063;28;20049;-53
2023/01/21 06:08:09;;;;;;;67.90;11.50;;;;;;;-148.24;100.00;61531.34;4981892;28;20030;-53
2023/01/21 06:10:35;;;;;;;56.05;9.38;;;;;;;-148.24;100.00;61531.34;4964078;28;20054;-54
2023/01/21 06:13:00;;;;;;;67.88;11.10;;;;;;;-148.24;100.00;61531.34;4981590;28;20045;-52
2023/01/21 06:15:25;;;;;;;73.53;11.75;;;;;;;-148.24;100.00;61531.34;4982424;28;20045;-52
2023/01/21 06:17:51;;;;;;;97.90;13.15;;;;;;;-148.24;100.00;61531.34;4976935;28;20143;-53
2023/01/21 06:20:17;;;;;;;80.10;12.18;;;;;;;-148.24;100.00;61531.34;4978195;28;20025;-52
2023/01/21 06:22:43;;;;;;;71.80;9.85;;;;;;;-148.24;100.00;61531.34;4974349;28;20404;-53
2023/01/21 06:25:09;;;;;;;83.88;10.30;;;;;;;-148.24;100.00;61531.34;4984874;28;20112;-52
2023/01/21 06:27:36;;;;;;;66.35;11.13;;;;;;;-148.24;100.00;61531.34;4978731;28;20089;-52
2023/01/21 06:30:02;;;;;;;124.95;15.77;;;;;;;-148.24;100.00;61531.34;4975797;28;20123;-52
2023/01/21 06:32:28;;;;;;;75.05;12.00;;;;;;;-148.24;100.00;61531.34;4977878;28;20039;-51
2023/01/21 06:34:53;;;;;;;71.85;11.40;;;;;;;-148.24;100.00;61531.34;4975775;28;20041;-52
2023/01/21 06:37:18;;;;;;;78.38;12.55;;;;;;;-148.24;100.00;61531.34;4977355;28;20042;-52
2023/01/21 06:39:44;;;;;;;53.65;7.07;;;;;;;-148.24;100.00;61531.34;4981337;28;20069;-55
2023/01/21 06:42:09;;;;;;;92.78;13.80;;;;;;;-148.24;100.00;61531.34;4976102;28;20042;-53
2023/01/21 06:44:34;;;;;;;80.10;12.55;;;;;;;-148.24;100.00;61531.34;4978652;28;20511;-53
2023/01/21 06:47:00;;;;;;;63.22;11.65;;;;;;;-148.24;100.00;61531.34;4975176;28;20400;-55
2023/01/21 06:49:25;;;;;;;78.93;11.75;;;;;;;-148.24;100.00;61531.34;4977743;28;20137;-54
2023/01/21 06:51:50;;;;;;;85.22;13.15;;;;;;;-148.24;100.00;61531.34;4978582;28;20062;-53
2023/01/21 06:54:16;;;;;;;77.82;9.02;;;;;;;-148.24;100.00;61531.34;4976336;28;20042;-53
2023/01/21 06:56:42;;;;;;;82.28;12.70;;;;;;;-148.24;100.00;61531.34;4977899;28;20046;-54
2023/01/21 06:59:08;;;;;;;82.78;14.07;;;;;;;-148.24;100.00;61531.34;4980547;28;20629;-54
2023/01/21 07:01:33;;;;;;;102.03;14.88;;;;;;;-148.24;100.00;61531.34;4977784;28;20599;-53
2023/01/21 07:04:00;;;;;;;77.03;9.25;;;;;;;-148.24;100.00;61531.34;4975507;28;20033;-54
2023/01/21 07:06:25;;;;;;;66.15;8.55;;;;;;;-148.24;100.00;61531.34;4976435;28;20128;-52
2023/01/21 07:08:51;;;;;;;74.95;10.65;;;;;;;-148.24;100.00;61531.34;4977959;28;20728;-54
2023/01/21 07:11:16;;;;;;;76.78;12.95;;;;;;;-148.24;100.00;61531.34;4980768;28;20035;-53
2023/01/21 07:13:41;;;;;;;103.40;14.43;;;;;;;-148.24;100.00;61531.34;4983378;28;20029;-56
2023/01/21 07:16:07;;;;;;;84.82;14.15;;;;;;;-148.24;100.00;61531.34;4978689;28;20031;-52
2023/01/21 07:18:33;;;;;;;87.35;14.07;;;;;;;-148.24;100.00;61531.34;4975610;28;20038;-53
2023/01/21 07:20:58;;;;;;;83.85;13.35;;;;;;;-148.24;100.00;61531.34;4973421;28;20041;-54
2023/01/21 07:23:24;;;;;;;82.35;13.88;;;;;;;-148.24;100.00;61531.34;4973706;28;20033;-53
2023/01/21 07:25:49;;;;;;;97.03;14.00;;;;;;;-148.24;100.00;61531.34;4974680;28;20491;-53
2023/01/21 07:28:15;;;;;;;72.80;13.48;;;;;;;-148.24;100.00;61531.34;4979089;28;20041;-52
2023/01/21 07:30:40;;;;;;;89.97;15.25;;;;;;;-148.24;100.00;61531.34;4975855;28;20038;-53
2023/01/21 07:33:07;;;;;;;72.60;11.75;;;;;;;-148.24;100.00;61531.34;4979262;28;20027;-55
2023/01/21 07:35:33;;;;;;;63.10;12.00;;;;;;;-148.24;100.00;61531.34;4974507;28;20860;-54
2023/01/21 07:37:58;;;;;;;96.47;13.43;;;;;;;-148.24;100.00;61531.34;4974971;28;20113;-55
2023/01/21 07:40:23;;;;;;;83.38;14.73;;;;;;;-148.24;100.00;61531.34;4975373;28;20318;-53
2023/01/21 07:42:51;;;;;;;88.38;13.73;;;;;;;-148.24;100.00;61531.34;4978042;28;20601;-54
2023/01/21 07:45:16;;;;;;;82.90;13.68;;;;;;;-148.24;100.00;61531.34;4974771;28;20034;-56
2023/01/21 07:47:41;;;;;;;80.68;12.52;;;;;;;-148.24;100.00;61531.34;4977421;28;20037;-52
2023/01/21 07:50:07;;;;;;;121.10;14.13;;;;;;;-148.24;100.00;61531.34;4981380;28;20050;-55
2023/01/21 07:52:33;;;;;;;76.60;11.95;;;;;;;-148.24;100.00;61531.34;4976101;28;20069;-54
2023/01/21 07:54:58;;;;;;;76.82;13.45;;;;;;;-148.24;100.00;61531.34;4972404;28;20065;-54
2023/01/21 07:57:23;;;;;;;80.55;14.00;;;;;;;-148.24;100.00;61531.34;4982360;28;20492;-52
2023/01/21 07:59:49;;;;;;;70.93;12.18;;;;;;;-148.24;100.00;61531.34;4975127;28;20260;-53
2023/01/21 08:02:14;;;;;;;88.63;13.38;;;;;;;-148.24;100.00;61531.34;4967479;28;20039;-54
2023/01/21 08:04:39;;;;;;;70.35;12.43;;;;;;;-148.24;100.00;61531.34;4975550;28;20643;-56
2023/01/21 08:07:08;;;;;;;65.53;11.52;;;;;;;-148.24;100.00;61531.34;4980783;28;20030;-56
2023/01/21 08:09:34;;;;;;;62.08;11.68;;;;;;;-148.24;100.00;61531.34;4979738;28;20038;-53
2023/01/21 08:12:00;;;;;;;69.25;10.77;;;;;;;-148.24;100.00;61531.34;4978318;28;20049;-54
2023/01/21 08:14:25;;;;;;;82.00;11.95;;;;;;;-148.24;100.00;61531.34;4976887;28;20022;-53
2023/01/21 08:16:50;;;;;;;73.35;10.90;;;;;;;-148.24;100.00;61531.34;4979187;28;20041;-54
2023/01/21 08:19:16;;;;;;;60.50;10.15;;;;;;;-148.24;100.00;61531.34;4982986;28;20311;-54
2023/01/21 08:21:41;;;;;;;71.25;10.90;;;;;;;-148.24;100.00;61531.34;4975989;28;20116;-54
2023/01/21 08:24:08;;;;;;;54.97;8.45;;;;;;;-148.24;100.00;61531.34;4975226;28;20052;-53
2023/01/21 08:26:34;;;;;;;70.95;7.57;;;;;;;-148.24;100.00;61531.34;4976295;28;20061;-54
2023/01/21 08:28:59;;;;;;;53.83;7.75;;;;;;;-148.24;100.00;61531.34;4977994;28;20021;-53
2023/01/21 08:31:25;;;;;;;71.80;8.90;;;;;;;-148.24;100.00;61531.34;4981073;28;20108;-53
2023/01/21 08:33:51;;;;;;;65.03;9.15;;;;;;;-148.24;100.00;61531.34;4978163;28;20030;-52
2023/01/21 08:36:16;;;;;;;70.63;8.45;;;;;;;-148.24;100.00;61531.34;4977176;28;20035;-53
2023/01/21 08:38:42;;;;;;;78.32;8.95;;;;;;;-148.24;100.00;61531.34;4979738;28;20036;-55
2023/01/21 08:41:09;;;;;;;49.05;6.43;;;;;;;-148.24;100.00;61531.34;4978788;28;20754;-54
2023/01/21 08:43:35;;;;;;;52.80;6.72;;;;;;;-148.24;100.00;61531.34;4975302;28;20042;-54
2023/01/21 08:46:00;;;;;;;54.88;7.50;;;;;;;-148.24;100.00;61531.34;4977768;28;20049;-54
2023/01/21 08:48:27;;;;;;;53.88;7.55;;;;;;;-148.24;100.00;61531.34;4980222;28;20050;-55
2023/01/21 08:50:52;;;;;;;80.68;10.27;;;;;;;-148.24;100.00;61531.34;4984918;28;20053;-56
2023/01/21 08:53:18;;;;;;;60.20;9.18;;;;;;;-148.24;100.00;61531.34;4984548;28;20058;-56
2023/01/21 08:55:43;;;;;;;60.45;7.22;;;;;;;-148.24;100.00;61531.34;4976894;28;20042;-55
2023/01/21 08:58:09;;;;;;;50.80;8.23;;;;;;;-148.24;100.00;61531.34;4977070;28;20022;-55
2023/01/21 09:00:34;;;;;;;63.55;8.52;;;;;;;-148.24;100.00;61531.34;4974204;28;20046;-56
2023/01/21 09:03:00;;;;;;;63.08;8.10;;;;;;;-148.24;100.00;61531.34;4974810;28;20030;-55
2023/01/21 09:05:25;;;;;;;56.22;8.93;;;;;;;-148.24;100.00;61531.34;4980107;28;20056;-55
2023/01/21 09:07:50;;;;;;;70.00;8.88;;;;;;;-148.24;100.00;61531.34;4980309;28;20519;-53
2023/01/21 09:13:06;;;;;;;68.38;9.00;;;;;;;-148.24;100.00;61531.34;4975544;28;20778;-55
2023/01/21 09:15:35;;;;;;;48.05;7.15;;;;;;;-148.24;100.00;61531.34;4972061;28;20038;-56
2023/01/21 09:18:00;;;;;;;58.47;6.78;;;;;;;-148.24;100.00;61531.34;4980492;28;20057;-56
2023/01/21 09:20:26;;;;;;;43.90;6.43;;;;;;;-148.24;100.00;61531.34;4981176;28;24697;-55
2023/01/21 09:22:51;;;;;;;53.20;7.93;;;;;;;-148.24;100.00;61531.34;4982520;28;20450;-55
2023/01/21 09:25:16;;;;;;;58.85;6.95;;;;;;;-148.24;100.00;61531.34;4981055;28;20332;-54
2023/01/21 09:27:42;;;;;;;56.38;8.00;;;;;;;-148.24;100.00;61531.34;4976555;28;20065;-54
2023/01/21 09:30:08;;;;;;;65.05;9.88;;;;;;;-148.24;100.00;61531.34;4980888;28;20026;-54
2023/01/21 09:32:33;;;;;;;48.47;6.88;;;;;;;-148.24;100.00;61531.34;4983230;28;20041;-55
2023/01/21 09:34:59;;;;;;;45.33;6.05;;;;;;;-148.24;100.00;61531.34;4979977;28;20081;-55
2023/01/21 09:37:24;;;;;;;76.90;8.70;;;;;;;-148.24;100.00;61531.34;4979133;28;20137;-54
2023/01/21 09:39:49;;;;;;;57.75;8.68;;;;;;;-148.24;100.00;61531.34;4980316;28;20058;-55
2023/01/21 09:42:19;;;;;;;49.03;7.22;;;;;;;-148.24;100.00;61531.34;4979954;28;20173;-55
2023/01/21 09:44:49;;;;;;;39.92;7.63;;;;;;;-148.24;100.00;61531.34;4983865;28;20065;-54
2023/01/21 09:47:20;;;;;;;50.83;7.65;;;;;;;-148.24;100.00;61531.34;4983377;28;20042;-56
2023/01/21 09:49:53;;;;;;;55.70;8.88;;;;;;;-148.24;100.00;61531.34;4981782;28;20088;-55
2023/01/21 09:52:21;;;;;;;50.70;8.45;;;;;;;-148.24;100.00;61531.34;4983155;28;20107;-54
2023/01/21 09:54:47;;;;;;;67.72;7.60;;;;;;;-148.24;100.00;61531.34;4981962;28;20038;-53
2023/01/21 09:57:46;;;;;;;51.70;6.97;;;;;;;-148.24;100.00;61531.34;4981852;28;20041;-52
2023/01/21 10:00:17;;;;;;;55.63;8.23;;;;;;;-148.24;100.00;61531.34;4977295;28;20021;-54
2023/01/21 10:03:16;;;;;;;82.05;8.77;;;;;;;-148.24;100.00;61531.34;4976722;28;20417;-54
2023/01/21 10:06:04;;;;;;;49.97;5.82;;;;;;;-148.24;100.00;61531.34;4946049;28;20041;-54
2023/01/21 10:08:42;;;;;;;54.53;7.68;;;;;;;-148.24;100.00;61531.34;4982892;28;20030;-53
2023/01/21 10:11:23;;;;;;;42.67;5.80;;;;;;;-148.24;100.00;61531.34;4979240;28;20049;-55
2023/01/21 10:14:22;;;;;;;66.13;7.00;;;;;;;-148.24;100.00;61531.34;4977193;28;20027;-52
2023/01/21 10:16:58;;;;;;;64.80;6.90;;;;;;;-148.24;100.00;61531.34;4980792;28;20038;-52
2023/01/21 10:19:35;;;;;;;49.67;7.45;;;;;;;-148.24;100.00;61531.34;4983133;28;20041;-53
2023/01/21 10:22:30;;;;;;;64.47;8.43;;;;;;;-148.24;100.00;61531.34;4977575;28;20034;-54
2023/01/21 10:25:02;;;;;;;68.00;8.50;;;;;;;-148.24;100.00;61531.34;4962905;28;20061;-52
2023/01/21 10:27:31;;;;;;;;;;;;;;;-148.24;100.00;61531.34;4980527;28;20038;-53
2023/01/21 10:30:01;;;;;;;76.63;9.02;;;;;;;-148.24;100.00;61531.34;4976999;28;19920;-52
2023/01/21 10:32:27;;;;;;;54.10;7.82;;;;;;;-148.24;100.00;61531.34;4981288;28;20075;-55
2023/01/21 10:34:56;;;;;;;58.30;8.30;;;;;;;-148.24;100.00;61531.34;4977232;28;20027;-53
2023/01/21 10:37:42;;;;;;;59.60;8.95;;;;;;;-148.24;100.00;61531.34;4977558;28;20045;-53
2023/01/21 10:40:43;;;;;;;81.82;8.35;;;;;;;-148.24;100.00;61531.34;4976764;28;20083;-52
2023/01/21 10:43:20;;;;;;;66.10;9.50;;;;;;;-148.24;100.00;61531.34;4980022;28;20485;-54
2023/01/21 10:46:12;;;;;;;65.75;7.55;;;;;;;-148.24;100.00;61531.34;4977333;28;20559;-54
2023/01/21 10:48:51;;;;;;;50.90;7.18;;;;;;;-148.24;100.00;61531.34;4961891;28;20489;-53
2023/01/21 10:51:23;;;;;;;71.13;7.80;;;;;;;-148.24;100.00;61531.34;4980037;28;20121;-52
2023/01/21 10:54:03;;;;;;;79.57;9.35;;;;;;;-148.24;100.00;61531.34;4975523;28;20041;-53
2023/01/21 10:56:46;;;;;;;63.58;5.45;;;;;;;-148.24;100.00;61531.34;4980058;28;20054;-54
2023/01/21 10:59:15;;;;;;;63.45;7.90;;;;;;;-148.24;100.00;61531.34;4981566;28;20030;-54
2023/01/21 11:02:01;;;;;;;63.70;8.60;;;;;;;-148.24;100.00;61531.34;4973878;28;20152;-53
2023/01/21 11:04:27;;;;;;;62.88;7.57;;;;;;;-148.24;100.00;61531.34;4977103;28;20026;-55
2023/01/21 11:07:02;;;;;;;47.00;4.82;;;;;;;-148.24;100.00;61531.34;4979712;28;20036;-53
2023/01/21 11:09:32;;;;;;;62.80;6.82;;;;;;;-148.24;100.00;61531.34;4976552;28;20065;-52
2023/01/21 11:11:59;;;;;;;55.63;7.45;;;;;;;-148.24;100.00;61531.34;4974684;28;20046;-56
2023/01/21 11:14:25;;;;;;;55.65;5.32;;;;;;;-148.24;100.00;61531.34;4978712;28;20088;-53